createdAt,value
2023-01-20T00:02:17.005Z,11.03
2023-01-20T00:07:19.914Z,11.80
2023-01-20T00:12:22.857Z,11.37
2023-01-20T00:17:25.694Z,13.97
2023-01-20T00:22:28.550Z,11.13
2023-01-20T00:27:31.434Z,11.33
2023-01-20T05:36:06.315Z,5.60
2023-01-20T05:41:10.174Z,6.27
2023-01-20T05:46:13.156Z,6.80
2023-01-20T05:51:16.051Z,5.03
2023-01-20T05:56:18.990Z,6.43
2023-01-20T06:01:21.902Z,6.10
2023-01-20T06:06:24.836Z,8.33
2023-01-20T06:11:27.802Z,9.23
2023-01-20T06:16:30.700Z,8.87
2023-01-20T06:21:33.650Z,9.30
2023-01-20T06:26:36.537Z,10.17
2023-01-20T06:31:39.805Z,11.50
2023-01-20T06:36:42.793Z,11.13
2023-01-20T06:41:46.428Z,10.63
2023-01-20T06:46:49.396Z,9.03
2023-01-20T06:51:52.332Z,10.70
2023-01-20T06:56:55.212Z,11.63
2023-01-20T07:01:58.275Z,9.43
2023-01-20T07:07:01.571Z,7.80
2023-01-20T07:12:04.513Z,8.80
2023-01-20T07:17:12.170Z,10.67
2023-01-20T07:22:15.025Z,8.83
2023-01-20T07:27:17.914Z,9.97
2023-01-20T07:32:20.770Z,9.17
2023-01-20T07:37:23.650Z,8.13
2023-01-20T07:42:26.494Z,8.50
2023-01-20T07:47:29.361Z,8.70
2023-01-20T07:52:32.214Z,9.33
2023-01-20T07:57:35.109Z,7.93
2023-01-20T08:02:38.810Z,11.20
2023-01-20T08:07:41.691Z,11.00
2023-01-20T08:12:44.575Z,9.33
2023-01-20T08:17:47.456Z,10.63
2023-01-20T08:22:50.329Z,13.17
2023-01-20T08:27:53.173Z,12.50
2023-01-20T08:32:56.223Z,11.63
2023-01-20T08:37:59.112Z,12.17
2023-01-20T08:43:02.350Z,13.67
2023-01-20T08:48:05.253Z,12.00
2023-01-20T08:53:08.100Z,11.53
2023-01-20T08:58:10.962Z,12.53
2023-01-20T09:03:13.890Z,13.47
2023-01-20T09:08:17.732Z,11.60
2023-01-20T09:13:20.602Z,10.80
2023-01-20T09:18:23.584Z,15.27
2023-01-20T09:23:27.174Z,11.57
2023-01-20T09:28:30.364Z,14.10
2023-01-20T09:33:36.162Z,14.30
2023-01-20T09:38:57.679Z,15.00
2023-01-20T09:44:32.737Z,12.90
2023-01-20T09:50:02.224Z,11.53
2023-01-20T09:55:18.491Z,13.53
2023-01-20T10:00:23.128Z,15.10
2023-01-20T10:05:32.957Z,16.53
2023-01-20T10:10:46.662Z,15.87
2023-01-20T10:15:55.512Z,11.50
2023-01-20T10:21:10.449Z,13.10
2023-01-20T10:26:43.837Z,12.90
2023-01-20T10:31:53.366Z,13.70
2023-01-20T10:37:07.288Z,12.60
2023-01-20T10:42:18.667Z,13.53
2023-01-20T10:48:03.088Z,14.37
2023-01-20T10:53:35.736Z,11.53
2023-01-20T10:58:40.947Z,11.57
2023-01-20T11:03:47.310Z,11.33
2023-01-20T11:08:50.262Z,8.10
2023-01-20T11:13:53.488Z,9.27
2023-01-20T11:19:00.097Z,8.97
2023-01-20T11:24:29.656Z,8.70
2023-01-20T11:29:38.482Z,9.37
2023-01-20T11:34:49.629Z,12.10
2023-01-20T11:39:55.293Z,8.27
2023-01-20T11:45:20.368Z,7.87
2023-01-20T11:50:34.134Z,10.40
2023-01-20T11:55:53.462Z,11.00
2023-01-20T12:01:05.601Z,11.63
2023-01-20T12:06:58.177Z,10.50
2023-01-20T12:12:25.712Z,9.23
2023-01-20T12:17:42.447Z,9.00
2023-01-20T12:23:06.049Z,9.00
2023-01-20T12:28:19.801Z,7.97
2023-01-20T12:33:29.090Z,8.53
2023-01-20T12:38:57.774Z,9.33
2023-01-20T12:44:18.451Z,7.20
2023-01-20T12:49:24.047Z,7.70
2023-01-20T12:54:47.894Z,9.23
2023-01-20T13:00:00.654Z,10.53
2023-01-20T13:05:17.569Z,8.80
2023-01-20T13:10:53.558Z,10.77
2023-01-20T13:16:19.640Z,11.93
2023-01-20T13:21:22.542Z,11.13
2023-01-20T13:26:27.564Z,10.60
2023-01-20T13:31:42.917Z,9.57
2023-01-20T13:37:10.166Z,13.00
2023-01-20T13:42:47.383Z,11.60
2023-01-20T13:48:02.909Z,12.33
2023-01-20T13:53:20.555Z,10.90
2023-01-20T13:58:34.257Z,12.97
2023-01-20T14:03:38.650Z,12.43
2023-01-20T14:08:46.591Z,12.70
2023-01-20T14:13:57.206Z,15.93
2023-01-20T14:19:02.530Z,13.67
2023-01-20T14:24:05.494Z,17.30
2023-01-20T14:29:20.201Z,15.73
2023-01-20T14:34:32.698Z,15.73
2023-01-20T14:39:35.594Z,15.97
2023-01-20T14:44:38.432Z,14.80
2023-01-20T14:49:43.526Z,12.10
2023-01-20T14:54:48.623Z,12.53
2023-01-20T15:00:16.063Z,10.53
2023-01-20T15:05:30.653Z,11.13
2023-01-20T15:10:33.620Z,9.77
2023-01-20T15:15:36.524Z,10.57
2023-01-20T15:20:41.748Z,9.23
2023-01-20T15:25:44.811Z,10.63
2023-01-20T15:30:47.798Z,8.43
2023-01-20T15:35:58.701Z,8.73
2023-01-20T15:41:01.580Z,9.17
2023-01-20T15:46:10.885Z,11.40
2023-01-20T15:51:18.557Z,8.73
2023-01-20T15:56:23.339Z,10.20
2023-01-20T16:01:28.714Z,9.20
2023-01-20T16:06:32.959Z,9.10
2023-01-20T16:11:35.833Z,10.60
2023-01-20T16:16:38.767Z,11.33
2023-01-20T16:21:44.332Z,11.07
2023-01-20T16:26:48.269Z,11.33
2023-01-20T16:31:51.570Z,11.57
2023-01-20T16:36:54.451Z,10.73
2023-01-20T16:41:57.342Z,9.50
2023-01-20T16:47:00.255Z,9.60
2023-01-20T16:52:03.302Z,9.40
2023-01-20T16:57:06.215Z,12.00
2023-01-20T17:02:11.311Z,10.30
2023-01-20T17:07:14.216Z,9.33
2023-01-20T17:12:17.124Z,10.30
2023-01-20T17:17:20.168Z,11.37
2023-01-20T17:22:23.151Z,10.00
2023-01-20T17:27:26.171Z,12.13
2023-01-20T17:32:29.040Z,9.67
2023-01-20T17:37:31.977Z,9.73
2023-01-20T17:42:34.914Z,12.23
2023-01-20T17:47:37.844Z,10.90
2023-01-20T17:52:40.733Z,10.70
2023-01-20T17:57:43.613Z,11.33
2023-01-20T18:02:46.475Z,10.73
2023-01-20T18:07:50.377Z,11.70
2023-01-20T18:12:53.246Z,11.13
2023-01-20T18:17:56.105Z,9.13
2023-01-20T18:22:59.276Z,14.73
2023-01-20T18:28:02.220Z,12.53
2023-01-20T18:33:05.086Z,14.07
2023-01-20T18:38:08.155Z,12.93
2023-01-20T18:43:11.133Z,13.23
2023-01-20T18:48:14.106Z,17.23
2023-01-20T18:53:17.107Z,14.47
2023-01-20T18:58:20.101Z,9.53
2023-01-20T19:03:24.837Z,10.53
2023-01-20T19:08:27.852Z,8.60
2023-01-20T19:13:31.259Z,12.27
2023-01-20T19:18:34.250Z,11.17
2023-01-20T19:23:37.348Z,9.70
2023-01-20T19:28:40.866Z,10.70
2023-01-20T19:33:43.975Z,8.10
2023-01-20T19:38:47.420Z,9.70
2023-01-20T19:43:55.506Z,8.67
2023-01-20T19:48:59.671Z,10.90
2023-01-20T19:54:12.829Z,9.27
2023-01-20T19:59:15.732Z,9.60
2023-01-20T20:04:20.738Z,12.30
2023-01-20T20:09:26.293Z,9.23
2023-01-20T20:14:31.447Z,11.03
2023-01-20T20:19:35.080Z,8.17
2023-01-20T20:24:38.265Z,8.20
2023-01-20T20:29:41.293Z,8.47
2023-01-20T20:34:44.259Z,7.73
2023-01-20T20:39:47.076Z,9.47
2023-01-20T20:44:49.996Z,9.23
2023-01-20T20:49:52.826Z,9.30
2023-01-20T20:54:56.120Z,8.60
2023-01-20T20:59:59.581Z,7.27
2023-01-20T21:05:02.720Z,7.77
2023-01-20T21:10:06.149Z,8.77
2023-01-20T21:15:11.295Z,8.80
2023-01-20T21:20:14.357Z,7.03
2023-01-20T21:25:17.931Z,8.10
2023-01-20T21:30:20.995Z,9.23
2023-01-20T21:35:23.977Z,8.40
2023-01-20T21:40:26.853Z,10.03
2023-01-20T21:45:29.761Z,7.57
2023-01-20T21:50:51.425Z,8.73
2023-01-20T21:55:54.270Z,9.77
2023-01-20T22:00:57.322Z,8.33
2023-01-20T22:06:02.482Z,7.23
2023-01-20T22:11:05.502Z,6.83
2023-01-20T22:16:08.512Z,7.57
2023-01-20T22:21:11.438Z,7.50
2023-01-20T22:26:14.464Z,7.10
2023-01-20T22:31:23.978Z,6.53
2023-01-20T22:36:27.154Z,6.40
2023-01-20T22:41:31.167Z,7.40
2023-01-20T22:46:34.138Z,8.17
2023-01-20T22:51:37.003Z,6.83
2023-01-20T22:56:39.999Z,7.57
2023-01-20T23:01:42.990Z,6.90
2023-01-20T23:06:45.883Z,6.60
2023-01-20T23:11:49.452Z,8.27
2023-01-20T23:16:52.620Z,6.73
2023-01-20T23:21:55.475Z,5.20
2023-01-20T23:26:58.340Z,4.00
2023-01-20T23:32:01.249Z,2.97
2023-01-20T23:37:04.254Z,3.30
2023-01-20T23:42:07.096Z,3.63
2023-01-20T23:47:12.662Z,2.80
2023-01-20T23:52:15.573Z,3.43
2023-01-20T23:57:18.611Z,3.77
